sensor_id;sensor_type;location;lat;lon;timestamp;P1;durP1;ratioP1;P2;durP2;ratioP2
23730;SDS011;12046;44.702;10.622;2023-07-20T00:00:30;13.63;;;3.75;;
23730;SDS011;12046;44.702;10.622;2023-07-20T00:03:12;5.05;;;3.03;;
23730;SDS011;12046;44.702;10.622;2023-07-20T00:05:45;8.15;;;3.22;;
23730;SDS011;12046;44.702;10.622;2023-07-20T00:08:11;3.97;;;2.70;;
23730;SDS011;12046;44.702;10.622;2023-07-20T00:10:37;4.68;;;2.58;;
23730;SDS011;12046;44.702;10.622;2023-07-20T00:13:02;3.22;;;2.45;;
23730;SDS011;12046;44.702;10.622;2023-07-20T00:15:28;3.92;;;2.50;;
23730;SDS011;12046;44.702;10.622;2023-07-20T00:17:54;4.45;;;2.88;;
23730;SDS011;12046;44.702;10.622;2023-07-20T00:20:20;4.97;;;2.30;;
23730;SDS011;12046;44.702;10.622;2023-07-20T00:22:53;3.55;;;2.30;;
23730;SDS011;12046;44.702;10.622;2023-07-20T00:25:34;4.70;;;2.40;;
23730;SDS011;12046;44.702;10.622;2023-07-20T00:28:01;4.55;;;2.08;;
23730;SDS011;12046;44.702;10.622;2023-07-20T00:30:39;4.28;;;2.60;;
23730;SDS011;12046;44.702;10.622;2023-07-20T00:33:53;4.78;;;2.50;;
23730;SDS011;12046;44.702;10.622;2023-07-20T00:36:34;3.70;;;2.05;;
23730;SDS011;12046;44.702;10.622;2023-07-20T00:39:12;5.28;;;2.20;;
23730;SDS011;12046;44.702;10.622;2023-07-20T00:41:43;4.38;;;2.10;;
23730;SDS011;12046;44.702;10.622;2023-07-20T00:44:15;2.58;;;2.10;;
23730;SDS011;12046;44.702;10.622;2023-07-20T00:46:46;2.40;;;2.20;;
23730;SDS011;12046;44.702;10.622;2023-07-20T00:49:33;4.20;;;2.05;;
23730;SDS011;12046;44.702;10.622;2023-07-20T00:55:03;3.42;;;2.50;;
23730;SDS011;12046;44.702;10.622;2023-07-20T00:58:15;4.67;;;2.87;;
23730;SDS011;12046;44.702;10.622;2023-07-20T01:00:24;3.10;;;2.10;;
23730;SDS011;12046;44.702;10.622;2023-07-20T01:03:02;3.55;;;2.88;;
23730;SDS011;12046;44.702;10.622;2023-07-20T01:11:56;3.25;;;2.30;;
23730;SDS011;12046;44.702;10.622;2023-07-20T01:14:51;2.88;;;2.40;;
23730;SDS011;12046;44.702;10.622;2023-07-20T01:17:17;2.45;;;2.10;;
23730;SDS011;12046;44.702;10.622;2023-07-20T01:19:46;2.97;;;2.60;;
23730;SDS011;12046;44.702;10.622;2023-07-20T01:25:13;3.37;;;2.30;;
23730;SDS011;12046;44.702;10.622;2023-07-20T01:33:01;2.70;;;2.30;;
23730;SDS011;12046;44.702;10.622;2023-07-20T01:35:28;4.97;;;2.45;;
23730;SDS011;12046;44.702;10.622;2023-07-20T01:38:16;2.72;;;2.20;;
23730;SDS011;12046;44.702;10.622;2023-07-20T01:40:45;3.25;;;2.10;;
23730;SDS011;12046;44.702;10.622;2023-07-20T01:43:11;4.25;;;2.38;;
23730;SDS011;12046;44.702;10.622;2023-07-20T01:45:44;3.30;;;2.78;;
23730;SDS011;12046;44.702;10.622;2023-07-20T01:48:10;3.10;;;2.40;;
23730;SDS011;12046;44.702;10.622;2023-07-20T01:50:36;3.95;;;2.85;;
23730;SDS011;12046;44.702;10.622;2023-07-20T01:53:01;3.35;;;3.00;;
23730;SDS011;12046;44.702;10.622;2023-07-20T01:55:27;3.28;;;2.60;;
23730;SDS011;12046;44.702;10.622;2023-07-20T01:57:54;4.72;;;3.20;;
23730;SDS011;12046;44.702;10.622;2023-07-20T02:00:20;4.03;;;2.72;;
23730;SDS011;12046;44.702;10.622;2023-07-20T02:02:46;3.10;;;2.80;;
23730;SDS011;12046;44.702;10.622;2023-07-20T02:05:12;3.80;;;2.95;;
23730;SDS011;12046;44.702;10.622;2023-07-20T02:07:38;4.50;;;3.03;;
23730;SDS011;12046;44.702;10.622;2023-07-20T02:10:04;3.42;;;2.90;;
23730;SDS011;12046;44.702;10.622;2023-07-20T02:12:30;4.20;;;3.03;;
23730;SDS011;12046;44.702;10.622;2023-07-20T02:14:56;3.35;;;2.60;;
23730;SDS011;12046;44.702;10.622;2023-07-20T02:17:22;3.40;;;2.70;;
23730;SDS011;12046;44.702;10.622;2023-07-20T02:19:50;2.75;;;2.50;;
23730;SDS011;12046;44.702;10.622;2023-07-20T02:22:17;3.33;;;2.80;;
23730;SDS011;12046;44.702;10.622;2023-07-20T02:24:43;4.07;;;3.35;;
23730;SDS011;12046;44.702;10.622;2023-07-20T02:27:09;4.45;;;3.22;;
23730;SDS011;12046;44.702;10.622;2023-07-20T02:29:35;4.78;;;3.58;;
23730;SDS011;12046;44.702;10.622;2023-07-20T02:32:01;5.63;;;3.88;;
23730;SDS011;12046;44.702;10.622;2023-07-20T02:34:27;5.53;;;4.00;;
23730;SDS011;12046;44.702;10.622;2023-07-20T02:36:53;5.85;;;4.60;;
23730;SDS011;12046;44.702;10.622;2023-07-20T02:39:21;6.55;;;5.25;;
23730;SDS011;12046;44.702;10.622;2023-07-20T02:41:47;7.55;;;4.78;;
23730;SDS011;12046;44.702;10.622;2023-07-20T02:44:16;5.90;;;4.13;;
23730;SDS011;12046;44.702;10.622;2023-07-20T02:46:41;7.05;;;5.47;;
23730;SDS011;12046;44.702;10.622;2023-07-20T02:49:07;6.13;;;5.50;;
23730;SDS011;12046;44.702;10.622;2023-07-20T02:51:33;5.85;;;5.03;;
23730;SDS011;12046;44.702;10.622;2023-07-20T02:53:59;5.68;;;5.00;;
23730;SDS011;12046;44.702;10.622;2023-07-20T02:56:25;7.57;;;5.57;;
23730;SDS011;12046;44.702;10.622;2023-07-20T02:58:51;5.45;;;4.90;;
23730;SDS011;12046;44.702;10.622;2023-07-20T03:01:20;6.40;;;5.38;;
23730;SDS011;12046;44.702;10.622;2023-07-20T03:03:52;7.65;;;4.40;;
23730;SDS011;12046;44.702;10.622;2023-07-20T03:06:17;5.05;;;4.47;;
23730;SDS011;12046;44.702;10.622;2023-07-20T03:08:43;5.43;;;4.22;;
23730;SDS011;12046;44.702;10.622;2023-07-20T03:11:10;6.13;;;4.50;;
23730;SDS011;12046;44.702;10.622;2023-07-20T03:13:36;8.90;;;5.13;;
23730;SDS011;12046;44.702;10.622;2023-07-20T03:16:04;7.20;;;5.05;;
23730;SDS011;12046;44.702;10.622;2023-07-20T03:18:30;7.63;;;4.90;;
23730;SDS011;12046;44.702;10.622;2023-07-20T03:20:56;7.80;;;5.72;;
23730;SDS011;12046;44.702;10.622;2023-07-20T03:23:22;7.30;;;4.72;;
23730;SDS011;12046;44.702;10.622;2023-07-20T03:25:48;5.93;;;4.80;;
23730;SDS011;12046;44.702;10.622;2023-07-20T03:28:13;6.70;;;3.70;;
23730;SDS011;12046;44.702;10.622;2023-07-20T03:30:40;5.80;;;3.88;;
23730;SDS011;12046;44.702;10.622;2023-07-20T03:33:06;5.90;;;3.78;;
23730;SDS011;12046;44.702;10.622;2023-07-20T03:35:32;5.10;;;3.90;;
23730;SDS011;12046;44.702;10.622;2023-07-20T03:37:57;5.60;;;3.63;;
23730;SDS011;12046;44.702;10.622;2023-07-20T03:40:23;6.45;;;3.75;;
23730;SDS011;12046;44.702;10.622;2023-07-20T03:42:50;7.40;;;3.75;;
23730;SDS011;12046;44.702;10.622;2023-07-20T03:45:15;6.55;;;3.80;;
23730;SDS011;12046;44.702;10.622;2023-07-20T03:47:41;6.50;;;3.22;;
23730;SDS011;12046;44.702;10.622;2023-07-20T03:50:07;4.20;;;3.10;;
23730;SDS011;12046;44.702;10.622;2023-07-20T03:52:34;3.33;;;2.85;;
23730;SDS011;12046;44.702;10.622;2023-07-20T03:55:00;5.75;;;3.80;;
23730;SDS011;12046;44.702;10.622;2023-07-20T03:57:26;5.72;;;4.10;;
23730;SDS011;12046;44.702;10.622;2023-07-20T03:59:52;6.22;;;4.07;;
23730;SDS011;12046;44.702;10.622;2023-07-20T04:02:19;4.95;;;3.50;;
23730;SDS011;12046;44.702;10.622;2023-07-20T04:04:45;6.07;;;3.50;;
23730;SDS011;12046;44.702;10.622;2023-07-20T04:07:11;4.55;;;3.42;;
23730;SDS011;12046;44.702;10.622;2023-07-20T04:09:37;6.07;;;3.20;;
23730;SDS011;12046;44.702;10.622;2023-07-20T04:12:03;4.13;;;2.85;;
23730;SDS011;12046;44.702;10.622;2023-07-20T04:14:29;4.75;;;3.30;;
23730;SDS011;12046;44.702;10.622;2023-07-20T04:16:55;3.53;;;3.22;;
23730;SDS011;12046;44.702;10.622;2023-07-20T04:19:21;4.47;;;2.85;;
23730;SDS011;12046;44.702;10.622;2023-07-20T04:21:46;4.30;;;3.13;;
23730;SDS011;12046;44.702;10.622;2023-07-20T04:24:12;3.53;;;2.83;;
23730;SDS011;12046;44.702;10.622;2023-07-20T04:26:38;3.75;;;2.70;;
23730;SDS011;12046;44.702;10.622;2023-07-20T04:29:04;4.35;;;3.30;;
23730;SDS011;12046;44.702;10.622;2023-07-20T04:31:30;3.67;;;2.85;;
23730;SDS011;12046;44.702;10.622;2023-07-20T04:33:58;4.30;;;2.90;;
23730;SDS011;12046;44.702;10.622;2023-07-20T04:36:24;3.20;;;2.60;;
23730;SDS011;12046;44.702;10.622;2023-07-20T04:38:49;2.88;;;2.60;;
23730;SDS011;12046;44.702;10.622;2023-07-20T04:41:15;3.10;;;2.25;;
23730;SDS011;12046;44.702;10.622;2023-07-20T04:43:41;6.13;;;2.80;;
23730;SDS011;12046;44.702;10.622;2023-07-20T04:46:10;3.97;;;2.53;;
23730;SDS011;12046;44.702;10.622;2023-07-20T04:48:36;4.22;;;2.70;;
23730;SDS011;12046;44.702;10.622;2023-07-20T04:51:02;4.95;;;2.88;;
23730;SDS011;12046;44.702;10.622;2023-07-20T04:53:28;4.45;;;3.08;;
23730;SDS011;12046;44.702;10.622;2023-07-20T04:56:03;4.80;;;3.45;;
23730;SDS011;12046;44.702;10.622;2023-07-20T04:58:47;4.75;;;3.00;;
23730;SDS011;12046;44.702;10.622;2023-07-20T05:01:15;3.83;;;2.80;;
23730;SDS011;12046;44.702;10.622;2023-07-20T05:09:34;3.47;;;2.65;;
23730;SDS011;12046;44.702;10.622;2023-07-20T05:12:03;4.55;;;2.70;;
23730;SDS011;12046;44.702;10.622;2023-07-20T05:14:29;2.72;;;2.42;;
23730;SDS011;12046;44.702;10.622;2023-07-20T05:16:57;2.83;;;2.30;;
23730;SDS011;12046;44.702;10.622;2023-07-20T05:19:24;3.70;;;2.60;;
23730;SDS011;12046;44.702;10.622;2023-07-20T05:21:50;3.70;;;2.50;;
23730;SDS011;12046;44.702;10.622;2023-07-20T05:24:22;3.10;;;2.72;;
23730;SDS011;12046;44.702;10.622;2023-07-20T05:27:19;3.35;;;2.63;;
23730;SDS011;12046;44.702;10.622;2023-07-20T05:30:39;3.47;;;2.85;;
23730;SDS011;12046;44.702;10.622;2023-07-20T05:33:11;4.70;;;2.92;;
23730;SDS011;12046;44.702;10.622;2023-07-20T05:38:55;4.28;;;2.95;;
23730;SDS011;12046;44.702;10.622;2023-07-20T06:21:51;3.47;;;2.60;;
23730;SDS011;12046;44.702;10.622;2023-07-20T06:27:11;3.47;;;2.50;;
23730;SDS011;12046;44.702;10.622;2023-07-20T06:29:37;4.00;;;2.60;;
23730;SDS011;12046;44.702;10.622;2023-07-20T06:32:09;2.50;;;2.30;;
23730;SDS011;12046;44.702;10.622;2023-07-20T06:34:38;3.30;;;2.10;;
23730;SDS011;12046;44.702;10.622;2023-07-20T06:37:09;2.75;;;2.20;;
23730;SDS011;12046;44.702;10.622;2023-07-20T06:39:37;3.08;;;2.17;;
23730;SDS011;12046;44.702;10.622;2023-07-20T06:42:03;2.30;;;2.10;;
23730;SDS011;12046;44.702;10.622;2023-07-20T06:44:37;3.50;;;2.40;;
23730;SDS011;12046;44.702;10.622;2023-07-20T06:47:12;3.55;;;2.50;;
23730;SDS011;12046;44.702;10.622;2023-07-20T06:49:46;2.80;;;2.30;;
23730;SDS011;12046;44.702;10.622;2023-07-20T06:52:15;2.40;;;2.20;;
23730;SDS011;12046;44.702;10.622;2023-07-20T06:54:43;3.58;;;2.67;;
23730;SDS011;12046;44.702;10.622;2023-07-20T06:57:28;3.67;;;2.72;;
23730;SDS011;12046;44.702;10.622;2023-07-20T07:00:05;4.85;;;2.83;;
23730;SDS011;12046;44.702;10.622;2023-07-20T07:02:38;5.28;;;2.83;;
23730;SDS011;12046;44.702;10.622;2023-07-20T07:05:45;3.45;;;2.83;;
23730;SDS011;12046;44.702;10.622;2023-07-20T07:08:13;3.55;;;2.92;;
23730;SDS011;12046;44.702;10.622;2023-07-20T07:10:45;4.45;;;2.80;;
23730;SDS011;12046;44.702;10.622;2023-07-20T07:13:14;4.97;;;2.88;;
23730;SDS011;12046;44.702;10.622;2023-07-20T07:15:39;4.78;;;2.80;;
23730;SDS011;12046;44.702;10.622;2023-07-20T07:18:23;4.05;;;2.70;;
23730;SDS011;12046;44.702;10.622;2023-07-20T07:20:56;4.68;;;3.10;;
23730;SDS011;12046;44.702;10.622;2023-07-20T07:26:43;4.07;;;2.67;;
23730;SDS011;12046;44.702;10.622;2023-07-20T07:29:23;2.83;;;2.40;;
23730;SDS011;12046;44.702;10.622;2023-07-20T07:31:51;3.85;;;2.60;;
23730;SDS011;12046;44.702;10.622;2023-07-20T07:34:22;2.80;;;2.50;;
23730;SDS011;12046;44.702;10.622;2023-07-20T07:36:51;3.25;;;2.58;;
23730;SDS011;12046;44.702;10.622;2023-07-20T07:39:26;5.20;;;2.72;;
23730;SDS011;12046;44.702;10.622;2023-07-20T07:41:54;5.10;;;2.63;;
23730;SDS011;12046;44.702;10.622;2023-07-20T07:44:35;3.88;;;2.80;;
23730;SDS011;12046;44.702;10.622;2023-07-20T07:47:01;3.25;;;2.88;;
23730;SDS011;12046;44.702;10.622;2023-07-20T07:49:30;3.65;;;2.78;;
23730;SDS011;12046;44.702;10.622;2023-07-20T07:51:56;5.15;;;3.30;;
23730;SDS011;12046;44.702;10.622;2023-07-20T07:54:22;4.05;;;2.90;;
23730;SDS011;12046;44.702;10.622;2023-07-20T07:56:48;5.30;;;3.20;;
23730;SDS011;12046;44.702;10.622;2023-07-20T07:59:14;7.38;;;3.63;;
23730;SDS011;12046;44.702;10.622;2023-07-20T08:01:40;5.95;;;3.08;;
23730;SDS011;12046;44.702;10.622;2023-07-20T08:04:05;3.30;;;3.00;;
23730;SDS011;12046;44.702;10.622;2023-07-20T08:06:31;4.93;;;3.20;;
23730;SDS011;12046;44.702;10.622;2023-07-20T08:08:57;5.32;;;3.15;;
23730;SDS011;12046;44.702;10.622;2023-07-20T08:11:23;5.70;;;3.30;;
23730;SDS011;12046;44.702;10.622;2023-07-20T08:13:49;3.65;;;3.10;;
23730;SDS011;12046;44.702;10.622;2023-07-20T08:16:15;4.22;;;2.90;;
23730;SDS011;12046;44.702;10.622;2023-07-20T08:18:40;3.95;;;3.10;;
23730;SDS011;12046;44.702;10.622;2023-07-20T08:21:07;4.40;;;2.80;;
23730;SDS011;12046;44.702;10.622;2023-07-20T08:23:32;4.65;;;3.20;;
23730;SDS011;12046;44.702;10.622;2023-07-20T08:25:59;6.45;;;3.10;;
23730;SDS011;12046;44.702;10.622;2023-07-20T08:28:25;4.93;;;3.22;;
23730;SDS011;12046;44.702;10.622;2023-07-20T08:30:51;8.02;;;3.30;;
23730;SDS011;12046;44.702;10.622;2023-07-20T08:33:18;4.50;;;2.70;;
23730;SDS011;12046;44.702;10.622;2023-07-20T08:35:48;4.35;;;2.90;;
23730;SDS011;12046;44.702;10.622;2023-07-20T08:38:14;5.45;;;3.70;;
23730;SDS011;12046;44.702;10.622;2023-07-20T08:40:44;5.47;;;3.60;;
23730;SDS011;12046;44.702;10.622;2023-07-20T08:43:11;4.75;;;3.30;;
23730;SDS011;12046;44.702;10.622;2023-07-20T08:45:40;4.10;;;3.10;;
23730;SDS011;12046;44.702;10.622;2023-07-20T08:48:06;5.50;;;2.78;;
23730;SDS011;12046;44.702;10.622;2023-07-20T08:50:33;4.55;;;3.05;;
23730;SDS011;12046;44.702;10.622;2023-07-20T08:53:00;8.27;;;3.78;;
23730;SDS011;12046;44.702;10.622;2023-07-20T08:55:26;6.70;;;3.65;;
23730;SDS011;12046;44.702;10.622;2023-07-20T08:57:53;5.40;;;3.33;;
23730;SDS011;12046;44.702;10.622;2023-07-20T09:00:21;3.38;;;3.05;;
23730;SDS011;12046;44.702;10.622;2023-07-20T09:02:49;4.40;;;2.90;;
23730;SDS011;12046;44.702;10.622;2023-07-20T09:05:17;6.90;;;4.10;;
23730;SDS011;12046;44.702;10.622;2023-07-20T09:07:48;4.95;;;3.40;;
23730;SDS011;12046;44.702;10.622;2023-07-20T09:10:13;4.65;;;3.35;;
23730;SDS011;12046;44.702;10.622;2023-07-20T09:12:40;5.55;;;3.08;;
23730;SDS011;12046;44.702;10.622;2023-07-20T09:15:08;3.50;;;3.10;;
23730;SDS011;12046;44.702;10.622;2023-07-20T09:17:35;3.72;;;3.00;;
23730;SDS011;12046;44.702;10.622;2023-07-20T09:20:06;3.28;;;2.88;;
23730;SDS011;12046;44.702;10.622;2023-07-20T09:22:35;6.45;;;3.13;;
23730;SDS011;12046;44.702;10.622;2023-07-20T09:25:08;7.53;;;3.92;;
23730;SDS011;12046;44.702;10.622;2023-07-20T09:27:44;6.03;;;3.67;;
23730;SDS011;12046;44.702;10.622;2023-07-20T09:30:12;4.18;;;3.50;;
23730;SDS011;12046;44.702;10.622;2023-07-20T09:35:19;3.53;;;3.22;;
23730;SDS011;12046;44.702;10.622;2023-07-20T09:37:51;5.72;;;3.28;;
23730;SDS011;12046;44.702;10.622;2023-07-20T09:40:23;5.38;;;3.17;;
23730;SDS011;12046;44.702;10.622;2023-07-20T09:42:50;5.35;;;3.20;;
23730;SDS011;12046;44.702;10.622;2023-07-20T09:45:17;4.28;;;3.00;;
23730;SDS011;12046;44.702;10.622;2023-07-20T09:47:43;3.47;;;3.00;;
23730;SDS011;12046;44.702;10.622;2023-07-20T09:50:09;5.38;;;3.35;;
23730;SDS011;12046;44.702;10.622;2023-07-20T09:52:39;3.95;;;3.38;;
23730;SDS011;12046;44.702;10.622;2023-07-20T09:55:07;3.67;;;3.03;;
23730;SDS011;12046;44.702;10.622;2023-07-20T09:57:34;3.30;;;2.90;;
23730;SDS011;12046;44.702;10.622;2023-07-20T10:00:02;2.92;;;2.60;;
23730;SDS011;12046;44.702;10.622;2023-07-20T10:02:34;4.65;;;3.10;;
23730;SDS011;12046;44.702;10.622;2023-07-20T10:05:06;4.13;;;2.75;;
23730;SDS011;12046;44.702;10.622;2023-07-20T10:07:34;2.90;;;2.65;;
23730;SDS011;12046;44.702;10.622;2023-07-20T10:10:05;3.03;;;2.72;;
23730;SDS011;12046;44.702;10.622;2023-07-20T10:12:33;3.85;;;2.97;;
23730;SDS011;12046;44.702;10.622;2023-07-20T10:15:05;6.55;;;3.22;;
23730;SDS011;12046;44.702;10.622;2023-07-20T10:17:37;4.97;;;2.97;;
23730;SDS011;12046;44.702;10.622;2023-07-20T10:20:14;4.03;;;3.10;;
23730;SDS011;12046;44.702;10.622;2023-07-20T10:22:44;3.35;;;2.95;;
23730;SDS011;12046;44.702;10.622;2023-07-20T10:25:12;3.22;;;2.92;;
23730;SDS011;12046;44.702;10.622;2023-07-20T10:27:39;4.72;;;2.95;;
23730;SDS011;12046;44.702;10.622;2023-07-20T10:30:06;3.72;;;2.78;;
23730;SDS011;12046;44.702;10.622;2023-07-20T10:32:32;7.00;;;3.22;;
23730;SDS011;12046;44.702;10.622;2023-07-20T10:34:58;3.85;;;3.33;;
23730;SDS011;12046;44.702;10.622;2023-07-20T10:40:25;6.13;;;3.38;;
23730;SDS011;12046;44.702;10.622;2023-07-20T10:43:10;4.07;;;3.20;;
23730;SDS011;12046;44.702;10.622;2023-07-20T10:45:40;7.45;;;3.78;;
23730;SDS011;12046;44.702;10.622;2023-07-20T10:48:24;7.30;;;4.00;;
23730;SDS011;12046;44.702;10.622;2023-07-20T10:53:35;5.68;;;3.58;;
23730;SDS011;12046;44.702;10.622;2023-07-20T10:56:14;5.78;;;3.58;;
23730;SDS011;12046;44.702;10.622;2023-07-20T10:58:44;4.10;;;3.45;;
23730;SDS011;12046;44.702;10.622;2023-07-20T11:01:13;4.30;;;3.88;;
23730;SDS011;12046;44.702;10.622;2023-07-20T11:03:40;5.88;;;3.40;;
23730;SDS011;12046;44.702;10.622;2023-07-20T11:06:51;3.67;;;3.38;;
23730;SDS011;12046;44.702;10.622;2023-07-20T11:09:03;4.75;;;3.17;;
23730;SDS011;12046;44.702;10.622;2023-07-20T11:11:31;3.85;;;3.00;;
23730;SDS011;12046;44.702;10.622;2023-07-20T11:14:02;3.33;;;3.00;;
23730;SDS011;12046;44.702;10.622;2023-07-20T11:19:19;4.82;;;3.67;;
23730;SDS011;12046;44.702;10.622;2023-07-20T11:21:53;4.90;;;3.22;;
23730;SDS011;12046;44.702;10.622;2023-07-20T11:24:20;4.28;;;3.00;;
23730;SDS011;12046;44.702;10.622;2023-07-20T11:26:47;3.47;;;3.17;;
23730;SDS011;12046;44.702;10.622;2023-07-20T11:29:18;4.18;;;2.92;;
23730;SDS011;12046;44.702;10.622;2023-07-20T11:31:45;5.75;;;3.40;;
23730;SDS011;12046;44.702;10.622;2023-07-20T11:34:12;5.40;;;3.15;;
23730;SDS011;12046;44.702;10.622;2023-07-20T11:36:42;4.05;;;3.38;;
23730;SDS011;12046;44.702;10.622;2023-07-20T11:39:10;5.00;;;3.30;;
23730;SDS011;12046;44.702;10.622;2023-07-20T11:44:21;4.72;;;3.60;;
23730;SDS011;12046;44.702;10.622;2023-07-20T11:47:07;5.07;;;3.75;;
23730;SDS011;12046;44.702;10.622;2023-07-20T11:49:39;4.90;;;3.67;;
23730;SDS011;12046;44.702;10.622;2023-07-20T11:52:06;5.50;;;3.50;;
23730;SDS011;12046;44.702;10.622;2023-07-20T11:54:34;5.53;;;4.10;;
23730;SDS011;12046;44.702;10.622;2023-07-20T11:57:01;5.93;;;4.10;;
23730;SDS011;12046;44.702;10.622;2023-07-20T11:59:27;5.03;;;3.53;;
23730;SDS011;12046;44.702;10.622;2023-07-20T12:01:53;4.10;;;3.15;;
23730;SDS011;12046;44.702;10.622;2023-07-20T12:04:19;5.35;;;3.00;;
23730;SDS011;12046;44.702;10.622;2023-07-20T12:06:48;5.18;;;3.13;;
23730;SDS011;12046;44.702;10.622;2023-07-20T12:09:14;4.25;;;3.65;;
23730;SDS011;12046;44.702;10.622;2023-07-20T12:11:42;5.57;;;3.28;;
23730;SDS011;12046;44.702;10.622;2023-07-20T12:14:09;5.78;;;3.85;;
23730;SDS011;12046;44.702;10.622;2023-07-20T12:33:53;6.47;;;4.15;;
23730;SDS011;12046;44.702;10.622;2023-07-20T12:36:23;6.50;;;3.88;;
23730;SDS011;12046;44.702;10.622;2023-07-20T12:38:50;6.22;;;4.10;;
23730;SDS011;12046;44.702;10.622;2023-07-20T12:41:16;5.50;;;4.10;;
23730;SDS011;12046;44.702;10.622;2023-07-20T12:43:43;6.53;;;4.03;;
23730;SDS011;12046;44.702;10.622;2023-07-20T12:46:10;5.55;;;3.83;;
23730;SDS011;12046;44.702;10.622;2023-07-20T12:48:39;5.85;;;3.75;;
23730;SDS011;12046;44.702;10.622;2023-07-20T12:51:07;5.35;;;3.60;;
23730;SDS011;12046;44.702;10.622;2023-07-20T12:53:34;4.32;;;3.55;;
23730;SDS011;12046;44.702;10.622;2023-07-20T12:56:00;3.75;;;3.40;;
23730;SDS011;12046;44.702;10.622;2023-07-20T12:58:26;3.72;;;3.33;;
23730;SDS011;12046;44.702;10.622;2023-07-20T13:00:55;5.50;;;3.63;;
23730;SDS011;12046;44.702;10.622;2023-07-20T13:03:21;4.05;;;3.45;;
23730;SDS011;12046;44.702;10.622;2023-07-20T13:05:47;8.07;;;3.85;;
23730;SDS011;12046;44.702;10.622;2023-07-20T13:08:13;4.85;;;3.65;;
23730;SDS011;12046;44.702;10.622;2023-07-20T13:10:39;6.18;;;3.45;;
23730;SDS011;12046;44.702;10.622;2023-07-20T13:13:05;4.70;;;3.38;;
23730;SDS011;12046;44.702;10.622;2023-07-20T13:15:31;3.97;;;3.55;;
23730;SDS011;12046;44.702;10.622;2023-07-20T13:18:05;3.08;;;2.85;;
23730;SDS011;12046;44.702;10.622;2023-07-20T13:20:31;4.65;;;3.63;;
23730;SDS011;12046;44.702;10.622;2023-07-20T13:22:57;5.65;;;3.58;;
23730;SDS011;12046;44.702;10.622;2023-07-20T13:25:23;7.30;;;3.75;;
23730;SDS011;12046;44.702;10.622;2023-07-20T13:27:49;4.00;;;3.70;;
23730;SDS011;12046;44.702;10.622;2023-07-20T13:30:15;4.57;;;3.83;;
23730;SDS011;12046;44.702;10.622;2023-07-20T13:32:44;3.58;;;3.28;;
23730;SDS011;12046;44.702;10.622;2023-07-20T13:35:10;4.28;;;3.42;;
23730;SDS011;12046;44.702;10.622;2023-07-20T13:37:36;5.75;;;3.80;;
23730;SDS011;12046;44.702;10.622;2023-07-20T13:40:02;4.85;;;3.83;;
23730;SDS011;12046;44.702;10.622;2023-07-20T13:42:30;5.60;;;3.88;;
23730;SDS011;12046;44.702;10.622;2023-07-20T13:44:57;4.70;;;3.70;;
23730;SDS011;12046;44.702;10.622;2023-07-20T13:47:23;5.20;;;3.92;;
23730;SDS011;12046;44.702;10.622;2023-07-20T13:49:49;4.38;;;3.47;;
23730;SDS011;12046;44.702;10.622;2023-07-20T13:52:15;4.13;;;3.72;;
23730;SDS011;12046;44.702;10.622;2023-07-20T13:54:41;6.15;;;3.83;;
23730;SDS011;12046;44.702;10.622;2023-07-20T13:57:06;5.97;;;3.63;;
23730;SDS011;12046;44.702;10.622;2023-07-20T13:59:32;6.10;;;3.70;;
23730;SDS011;12046;44.702;10.622;2023-07-20T14:01:58;3.83;;;3.38;;
23730;SDS011;12046;44.702;10.622;2023-07-20T14:04:24;5.72;;;3.95;;
23730;SDS011;12046;44.702;10.622;2023-07-20T14:06:50;6.45;;;3.80;;
23730;SDS011;12046;44.702;10.622;2023-07-20T14:09:16;5.47;;;3.35;;
23730;SDS011;12046;44.702;10.622;2023-07-20T14:11:42;4.28;;;3.75;;
23730;SDS011;12046;44.702;10.622;2023-07-20T14:14:08;6.43;;;4.20;;
23730;SDS011;12046;44.702;10.622;2023-07-20T14:16:35;6.22;;;4.43;;
23730;SDS011;12046;44.702;10.622;2023-07-20T14:19:00;4.40;;;3.75;;
23730;SDS011;12046;44.702;10.622;2023-07-20T14:21:26;5.20;;;3.58;;
23730;SDS011;12046;44.702;10.622;2023-07-20T14:23:53;5.30;;;4.32;;
23730;SDS011;12046;44.702;10.622;2023-07-20T14:26:19;4.82;;;3.75;;
23730;SDS011;12046;44.702;10.622;2023-07-20T14:28:45;5.45;;;4.28;;
23730;SDS011;12046;44.702;10.622;2023-07-20T14:31:12;5.07;;;3.58;;
23730;SDS011;12046;44.702;10.622;2023-07-20T14:33:39;5.22;;;4.05;;
23730;SDS011;12046;44.702;10.622;2023-07-20T14:36:05;4.70;;;3.72;;
23730;SDS011;12046;44.702;10.622;2023-07-20T14:38:31;5.57;;;3.70;;
23730;SDS011;12046;44.702;10.622;2023-07-20T14:40:58;4.22;;;3.35;;
23730;SDS011;12046;44.702;10.622;2023-07-20T14:43:24;5.78;;;3.88;;
23730;SDS011;12046;44.702;10.622;2023-07-20T14:45:50;3.83;;;3.25;;
23730;SDS011;12046;44.702;10.622;2023-07-20T14:48:16;3.30;;;3.00;;
23730;SDS011;12046;44.702;10.622;2023-07-20T14:50:42;5.63;;;4.05;;
23730;SDS011;12046;44.702;10.622;2023-07-20T14:53:10;3.90;;;3.17;;
23730;SDS011;12046;44.702;10.622;2023-07-20T14:55:37;3.90;;;3.50;;
23730;SDS011;12046;44.702;10.622;2023-07-20T14:58:03;3.15;;;2.75;;
23730;SDS011;12046;44.702;10.622;2023-07-20T15:00:29;4.28;;;3.25;;
23730;SDS011;12046;44.702;10.622;2023-07-20T15:02:55;4.22;;;3.33;;
23730;SDS011;12046;44.702;10.622;2023-07-20T15:05:22;4.10;;;3.40;;
23730;SDS011;12046;44.702;10.622;2023-07-20T15:07:49;5.70;;;3.42;;
23730;SDS011;12046;44.702;10.622;2023-07-20T15:10:15;4.03;;;3.72;;
23730;SDS011;12046;44.702;10.622;2023-07-20T15:12:41;4.13;;;3.58;;
23730;SDS011;12046;44.702;10.622;2023-07-20T15:15:08;6.45;;;4.07;;
23730;SDS011;12046;44.702;10.622;2023-07-20T15:17:35;6.10;;;3.78;;
23730;SDS011;12046;44.702;10.622;2023-07-20T15:20:02;4.70;;;3.05;;
23730;SDS011;12046;44.702;10.622;2023-07-20T15:22:30;4.60;;;3.67;;
23730;SDS011;12046;44.702;10.622;2023-07-20T15:24:56;3.75;;;3.40;;
23730;SDS011;12046;44.702;10.622;2023-07-20T15:27:22;4.72;;;3.63;;
23730;SDS011;12046;44.702;10.622;2023-07-20T15:29:48;4.35;;;3.60;;
23730;SDS011;12046;44.702;10.622;2023-07-20T15:32:17;4.32;;;3.92;;
23730;SDS011;12046;44.702;10.622;2023-07-20T15:34:46;4.57;;;3.75;;
23730;SDS011;12046;44.702;10.622;2023-07-20T15:37:13;5.50;;;3.92;;
23730;SDS011;12046;44.702;10.622;2023-07-20T15:39:39;5.82;;;4.25;;
23730;SDS011;12046;44.702;10.622;2023-07-20T15:42:06;6.65;;;3.65;;
23730;SDS011;12046;44.702;10.622;2023-07-20T15:44:32;3.92;;;3.63;;
23730;SDS011;12046;44.702;10.622;2023-07-20T15:46:58;4.43;;;3.53;;
23730;SDS011;12046;44.702;10.622;2023-07-20T15:49:27;6.53;;;4.10;;
23730;SDS011;12046;44.702;10.622;2023-07-20T15:51:53;4.60;;;4.20;;
23730;SDS011;12046;44.702;10.622;2023-07-20T15:54:19;4.15;;;3.75;;
23730;SDS011;12046;44.702;10.622;2023-07-20T15:56:46;4.65;;;4.25;;
23730;SDS011;12046;44.702;10.622;2023-07-20T15:59:12;7.75;;;4.78;;
23730;SDS011;12046;44.702;10.622;2023-07-20T16:01:39;4.63;;;4.13;;
23730;SDS011;12046;44.702;10.622;2023-07-20T16:04:06;5.03;;;4.32;;
23730;SDS011;12046;44.702;10.622;2023-07-20T16:06:32;4.13;;;3.72;;
23730;SDS011;12046;44.702;10.622;2023-07-20T16:09:00;5.10;;;4.22;;
23730;SDS011;12046;44.702;10.622;2023-07-20T16:11:30;5.55;;;4.32;;
23730;SDS011;12046;44.702;10.622;2023-07-20T16:14:02;6.40;;;4.63;;
23730;SDS011;12046;44.702;10.622;2023-07-20T16:16:29;4.95;;;4.18;;
23730;SDS011;12046;44.702;10.622;2023-07-20T16:18:56;6.65;;;5.18;;
23730;SDS011;12046;44.702;10.622;2023-07-20T16:21:21;5.13;;;3.95;;
23730;SDS011;12046;44.702;10.622;2023-07-20T16:23:47;5.15;;;4.22;;
23730;SDS011;12046;44.702;10.622;2023-07-20T16:26:14;4.70;;;4.30;;